sensor_id;sensor_type;location;lat;lon;timestamp;P1;durP1;ratioP1;P2;durP2;ratioP2
29344;SDS011;16339;48.748;2.222;2023-11-21T00:00:07;10.82;;;4.05;;
29344;SDS011;16339;48.748;2.222;2023-11-21T00:02:37;14.10;;;4.07;;
29344;SDS011;16339;48.748;2.222;2023-11-21T00:05:06;12.18;;;4.18;;
29344;SDS011;16339;48.748;2.222;2023-11-21T00:07:36;11.40;;;3.90;;
29344;SDS011;16339;48.748;2.222;2023-11-21T00:10:07;19.08;;;4.65;;
29344;SDS011;16339;48.748;2.222;2023-11-21T00:12:39;23.75;;;4.70;;
29344;SDS011;16339;48.748;2.222;2023-11-21T00:15:08;10.00;;;3.65;;
29344;SDS011;16339;48.748;2.222;2023-11-21T00:17:38;10.50;;;4.05;;
29344;SDS011;16339;48.748;2.222;2023-11-21T00:20:08;16.75;;;3.88;;
29344;SDS011;16339;48.748;2.222;2023-11-21T00:22:38;15.73;;;4.05;;
29344;SDS011;16339;48.748;2.222;2023-11-21T00:25:09;11.07;;;4.00;;
29344;SDS011;16339;48.748;2.222;2023-11-21T00:27:40;11.13;;;3.85;;
29344;SDS011;16339;48.748;2.222;2023-11-21T00:30:09;14.77;;;4.30;;
29344;SDS011;16339;48.748;2.222;2023-11-21T00:32:39;16.73;;;4.85;;
29344;SDS011;16339;48.748;2.222;2023-11-21T00:35:08;12.55;;;4.40;;
29344;SDS011;16339;48.748;2.222;2023-11-21T00:37:37;14.30;;;4.50;;
29344;SDS011;16339;48.748;2.222;2023-11-21T00:40:10;15.00;;;4.18;;
29344;SDS011;16339;48.748;2.222;2023-11-21T00:42:40;18.33;;;4.60;;
29344;SDS011;16339;48.748;2.222;2023-11-21T00:45:09;18.50;;;4.80;;
29344;SDS011;16339;48.748;2.222;2023-11-21T00:47:38;12.63;;;3.47;;
29344;SDS011;16339;48.748;2.222;2023-11-21T00:50:08;11.73;;;3.88;;
29344;SDS011;16339;48.748;2.222;2023-11-21T00:52:37;13.35;;;4.20;;
29344;SDS011;16339;48.748;2.222;2023-11-21T00:55:06;12.02;;;3.92;;
29344;SDS011;16339;48.748;2.222;2023-11-21T00:57:39;12.68;;;4.13;;
29344;SDS011;16339;48.748;2.222;2023-11-21T01:00:08;10.35;;;3.60;;
29344;SDS011;16339;48.748;2.222;2023-11-21T01:02:42;18.98;;;3.75;;
29344;SDS011;16339;48.748;2.222;2023-11-21T01:05:11;12.85;;;3.28;;
29344;SDS011;16339;48.748;2.222;2023-11-21T01:07:40;12.38;;;3.53;;
29344;SDS011;16339;48.748;2.222;2023-11-21T01:10:09;13.48;;;3.15;;
29344;SDS011;16339;48.748;2.222;2023-11-21T01:12:40;9.35;;;2.88;;
29344;SDS011;16339;48.748;2.222;2023-11-21T01:20:50;10.47;;;2.87;;
29344;SDS011;16339;48.748;2.222;2023-11-21T01:23:18;5.68;;;3.33;;
29344;SDS011;16339;48.748;2.222;2023-11-21T01:25:47;5.50;;;2.70;;
29344;SDS011;16339;48.748;2.222;2023-11-21T01:28:19;11.02;;;2.72;;
29344;SDS011;16339;48.748;2.222;2023-11-21T01:30:48;8.20;;;3.03;;
29344;SDS011;16339;48.748;2.222;2023-11-21T01:33:16;20.80;;;4.00;;
29344;SDS011;16339;48.748;2.222;2023-11-21T01:35:45;11.88;;;2.33;;
29344;SDS011;16339;48.748;2.222;2023-11-21T01:38:14;9.27;;;3.28;;
29344;SDS011;16339;48.748;2.222;2023-11-21T01:40:43;9.90;;;3.05;;
29344;SDS011;16339;48.748;2.222;2023-11-21T01:43:11;12.70;;;3.53;;
29344;SDS011;16339;48.748;2.222;2023-11-21T01:45:42;11.13;;;3.53;;
29344;SDS011;16339;48.748;2.222;2023-11-21T01:48:12;24.05;;;4.35;;
29344;SDS011;16339;48.748;2.222;2023-11-21T01:50:41;12.63;;;3.30;;
29344;SDS011;16339;48.748;2.222;2023-11-21T01:53:11;10.68;;;3.22;;
29344;SDS011;16339;48.748;2.222;2023-11-21T01:55:41;15.88;;;3.50;;
29344;SDS011;16339;48.748;2.222;2023-11-21T01:58:10;8.77;;;3.05;;
29344;SDS011;16339;48.748;2.222;2023-11-21T02:00:39;16.05;;;3.40;;
29344;SDS011;16339;48.748;2.222;2023-11-21T02:03:11;7.35;;;3.50;;
29344;SDS011;16339;48.748;2.222;2023-11-21T02:05:40;13.10;;;3.45;;
29344;SDS011;16339;48.748;2.222;2023-11-21T02:08:08;11.00;;;3.70;;
29344;SDS011;16339;48.748;2.222;2023-11-21T02:10:37;10.35;;;3.80;;
29344;SDS011;16339;48.748;2.222;2023-11-21T02:13:06;7.00;;;3.50;;
29344;SDS011;16339;48.748;2.222;2023-11-21T02:15:36;17.08;;;4.20;;
29344;SDS011;16339;48.748;2.222;2023-11-21T02:18:05;10.13;;;4.00;;
29344;SDS011;16339;48.748;2.222;2023-11-21T02:20:37;9.90;;;4.10;;
29344;SDS011;16339;48.748;2.222;2023-11-21T02:23:10;7.35;;;3.42;;
29344;SDS011;16339;48.748;2.222;2023-11-21T02:25:39;12.85;;;3.88;;
29344;SDS011;16339;48.748;2.222;2023-11-21T02:28:08;9.48;;;3.22;;
29344;SDS011;16339;48.748;2.222;2023-11-21T02:30:38;8.70;;;3.50;;
29344;SDS011;16339;48.748;2.222;2023-11-21T02:33:09;7.45;;;3.58;;
29344;SDS011;16339;48.748;2.222;2023-11-21T02:35:37;6.90;;;3.40;;
29344;SDS011;16339;48.748;2.222;2023-11-21T02:38:11;11.73;;;3.70;;
29344;SDS011;16339;48.748;2.222;2023-11-21T02:40:40;9.43;;;3.45;;
29344;SDS011;16339;48.748;2.222;2023-11-21T02:43:14;9.63;;;3.33;;
29344;SDS011;16339;48.748;2.222;2023-11-21T02:45:43;9.93;;;3.58;;
29344;SDS011;16339;48.748;2.222;2023-11-21T02:48:11;8.85;;;2.83;;
29344;SDS011;16339;48.748;2.222;2023-11-21T02:50:40;11.88;;;3.47;;
29344;SDS011;16339;48.748;2.222;2023-11-21T02:53:11;7.07;;;3.33;;
29344;SDS011;16339;48.748;2.222;2023-11-21T02:55:40;8.73;;;3.55;;
29344;SDS011;16339;48.748;2.222;2023-11-21T02:58:09;8.55;;;3.85;;
29344;SDS011;16339;48.748;2.222;2023-11-21T03:00:39;8.65;;;3.67;;
29344;SDS011;16339;48.748;2.222;2023-11-21T03:03:08;13.02;;;3.63;;
29344;SDS011;16339;48.748;2.222;2023-11-21T03:05:36;8.85;;;3.78;;
29344;SDS011;16339;48.748;2.222;2023-11-21T03:08:05;8.70;;;4.03;;
29344;SDS011;16339;48.748;2.222;2023-11-21T03:10:36;10.20;;;4.13;;
29344;SDS011;16339;48.748;2.222;2023-11-21T03:13:05;13.20;;;3.40;;
29344;SDS011;16339;48.748;2.222;2023-11-21T03:15:34;19.90;;;4.25;;
29344;SDS011;16339;48.748;2.222;2023-11-21T03:18:04;8.73;;;3.70;;
29344;SDS011;16339;48.748;2.222;2023-11-21T03:20:33;10.45;;;3.70;;
29344;SDS011;16339;48.748;2.222;2023-11-21T03:23:02;10.88;;;3.70;;
29344;SDS011;16339;48.748;2.222;2023-11-21T03:25:33;8.20;;;3.75;;
29344;SDS011;16339;48.748;2.222;2023-11-21T03:28:04;11.20;;;4.18;;
29344;SDS011;16339;48.748;2.222;2023-11-21T03:30:33;11.55;;;3.92;;
29344;SDS011;16339;48.748;2.222;2023-11-21T03:33:02;11.52;;;4.32;;
29344;SDS011;16339;48.748;2.222;2023-11-21T03:35:31;11.52;;;4.20;;
29344;SDS011;16339;48.748;2.222;2023-11-21T03:38:00;9.98;;;3.85;;
29344;SDS011;16339;48.748;2.222;2023-11-21T03:40:29;8.02;;;4.15;;
29344;SDS011;16339;48.748;2.222;2023-11-21T03:42:59;11.70;;;3.53;;
29344;SDS011;16339;48.748;2.222;2023-11-21T03:45:30;13.77;;;3.90;;
29344;SDS011;16339;48.748;2.222;2023-11-21T03:47:59;16.17;;;4.22;;
29344;SDS011;16339;48.748;2.222;2023-11-21T03:50:28;9.02;;;3.75;;
29344;SDS011;16339;48.748;2.222;2023-11-21T03:52:56;10.93;;;3.70;;
29344;SDS011;16339;48.748;2.222;2023-11-21T03:55:25;7.50;;;3.65;;
29344;SDS011;16339;48.748;2.222;2023-11-21T03:57:56;11.25;;;3.97;;
29344;SDS011;16339;48.748;2.222;2023-11-21T04:00:25;22.05;;;4.25;;
29344;SDS011;16339;48.748;2.222;2023-11-21T04:02:58;14.63;;;4.53;;
29344;SDS011;16339;48.748;2.222;2023-11-21T04:05:27;11.73;;;4.53;;
29344;SDS011;16339;48.748;2.222;2023-11-21T04:07:56;14.32;;;4.25;;
29344;SDS011;16339;48.748;2.222;2023-11-21T04:10:25;12.18;;;4.13;;
29344;SDS011;16339;48.748;2.222;2023-11-21T04:12:53;12.32;;;3.92;;
29344;SDS011;16339;48.748;2.222;2023-11-21T04:15:22;15.43;;;4.20;;
29344;SDS011;16339;48.748;2.222;2023-11-21T04:17:51;13.93;;;4.28;;
29344;SDS011;16339;48.748;2.222;2023-11-21T04:20:24;7.57;;;4.00;;
29344;SDS011;16339;48.748;2.222;2023-11-21T04:22:54;11.65;;;4.38;;
29344;SDS011;16339;48.748;2.222;2023-11-21T04:25:23;14.93;;;4.00;;
29344;SDS011;16339;48.748;2.222;2023-11-21T04:27:52;23.33;;;4.07;;
29344;SDS011;16339;48.748;2.222;2023-11-21T04:30:21;14.85;;;4.18;;
29344;SDS011;16339;48.748;2.222;2023-11-21T04:32:49;16.25;;;5.00;;
29344;SDS011;16339;48.748;2.222;2023-11-21T04:35:18;12.55;;;4.70;;
29344;SDS011;16339;48.748;2.222;2023-11-21T04:37:50;12.20;;;4.72;;
29344;SDS011;16339;48.748;2.222;2023-11-21T04:40:22;15.70;;;4.90;;
29344;SDS011;16339;48.748;2.222;2023-11-21T04:42:52;15.43;;;5.05;;
29344;SDS011;16339;48.748;2.222;2023-11-21T04:45:22;23.45;;;5.50;;
29344;SDS011;16339;48.748;2.222;2023-11-21T04:47:51;14.68;;;4.93;;
29344;SDS011;16339;48.748;2.222;2023-11-21T04:50:19;12.70;;;4.65;;
29344;SDS011;16339;48.748;2.222;2023-11-21T04:52:51;10.93;;;4.78;;
29344;SDS011;16339;48.748;2.222;2023-11-21T04:55:19;19.45;;;5.65;;
29344;SDS011;16339;48.748;2.222;2023-11-21T04:57:48;14.07;;;5.90;;
29344;SDS011;16339;48.748;2.222;2023-11-21T05:00:17;18.60;;;4.78;;
29344;SDS011;16339;48.748;2.222;2023-11-21T05:02:46;16.13;;;5.10;;
29344;SDS011;16339;48.748;2.222;2023-11-21T05:05:15;8.70;;;4.45;;
29344;SDS011;16339;48.748;2.222;2023-11-21T05:07:44;10.43;;;4.80;;
29344;SDS011;16339;48.748;2.222;2023-11-21T05:10:19;10.90;;;4.78;;
29344;SDS011;16339;48.748;2.222;2023-11-21T05:12:48;15.55;;;5.18;;
29344;SDS011;16339;48.748;2.222;2023-11-21T05:15:17;12.52;;;5.78;;
29344;SDS011;16339;48.748;2.222;2023-11-21T05:17:46;17.77;;;6.03;;
29344;SDS011;16339;48.748;2.222;2023-11-21T05:20:17;15.68;;;5.57;;
29344;SDS011;16339;48.748;2.222;2023-11-21T05:22:46;13.43;;;6.40;;
29344;SDS011;16339;48.748;2.222;2023-11-21T05:25:18;12.77;;;6.03;;
29344;SDS011;16339;48.748;2.222;2023-11-21T05:27:47;12.57;;;5.68;;
29344;SDS011;16339;48.748;2.222;2023-11-21T05:30:16;15.93;;;6.07;;
29344;SDS011;16339;48.748;2.222;2023-11-21T05:32:45;15.60;;;6.00;;
29344;SDS011;16339;48.748;2.222;2023-11-21T05:35:14;9.50;;;5.38;;
29344;SDS011;16339;48.748;2.222;2023-11-21T05:37:43;14.88;;;6.50;;
29344;SDS011;16339;48.748;2.222;2023-11-21T05:40:13;14.80;;;6.38;;
29344;SDS011;16339;48.748;2.222;2023-11-21T05:42:45;15.88;;;6.93;;
29344;SDS011;16339;48.748;2.222;2023-11-21T05:45:13;16.92;;;7.22;;
29344;SDS011;16339;48.748;2.222;2023-11-21T05:47:44;21.83;;;6.25;;
29344;SDS011;16339;48.748;2.222;2023-11-21T05:50:16;14.93;;;6.95;;
29344;SDS011;16339;48.748;2.222;2023-11-21T05:52:46;13.68;;;6.80;;
29344;SDS011;16339;48.748;2.222;2023-11-21T05:55:17;11.68;;;6.70;;
29344;SDS011;16339;48.748;2.222;2023-11-21T05:57:49;15.57;;;6.32;;
29344;SDS011;16339;48.748;2.222;2023-11-21T06:00:18;11.30;;;5.90;;
29344;SDS011;16339;48.748;2.222;2023-11-21T06:02:47;17.17;;;7.10;;
29344;SDS011;16339;48.748;2.222;2023-11-21T06:05:18;7.65;;;5.63;;
29344;SDS011;16339;48.748;2.222;2023-11-21T06:07:48;12.48;;;6.38;;
29344;SDS011;16339;48.748;2.222;2023-11-21T06:10:17;16.20;;;6.38;;
29344;SDS011;16339;48.748;2.222;2023-11-21T06:12:51;13.48;;;6.43;;
29344;SDS011;16339;48.748;2.222;2023-11-21T06:15:20;15.70;;;6.22;;
29344;SDS011;16339;48.748;2.222;2023-11-21T06:17:50;11.10;;;6.05;;
29344;SDS011;16339;48.748;2.222;2023-11-21T06:20:20;13.30;;;4.93;;
29344;SDS011;16339;48.748;2.222;2023-11-21T06:22:49;12.75;;;5.88;;
29344;SDS011;16339;48.748;2.222;2023-11-21T06:25:19;10.30;;;5.82;;
29344;SDS011;16339;48.748;2.222;2023-11-21T06:27:50;14.98;;;7.10;;
29344;SDS011;16339;48.748;2.222;2023-11-21T06:32:48;22.92;;;7.95;;
29344;SDS011;16339;48.748;2.222;2023-11-21T06:35:18;13.98;;;6.85;;
29344;SDS011;16339;48.748;2.222;2023-11-21T06:37:47;12.20;;;6.43;;
29344;SDS011;16339;48.748;2.222;2023-11-21T06:40:16;12.65;;;6.50;;
29344;SDS011;16339;48.748;2.222;2023-11-21T06:42:46;13.13;;;6.70;;
29344;SDS011;16339;48.748;2.222;2023-11-21T06:45:19;11.55;;;6.57;;
29344;SDS011;16339;48.748;2.222;2023-11-21T06:47:48;14.57;;;6.65;;
29344;SDS011;16339;48.748;2.222;2023-11-21T06:50:17;13.50;;;6.85;;
29344;SDS011;16339;48.748;2.222;2023-11-21T06:52:46;16.52;;;6.53;;
29344;SDS011;16339;48.748;2.222;2023-11-21T06:55:15;11.77;;;6.45;;
29344;SDS011;16339;48.748;2.222;2023-11-21T06:57:45;12.98;;;5.78;;
29344;SDS011;16339;48.748;2.222;2023-11-21T07:00:18;10.20;;;5.72;;
29344;SDS011;16339;48.748;2.222;2023-11-21T07:02:48;13.07;;;6.10;;
29344;SDS011;16339;48.748;2.222;2023-11-21T07:05:17;10.48;;;6.05;;
29344;SDS011;16339;48.748;2.222;2023-11-21T07:07:46;13.07;;;6.07;;
29344;SDS011;16339;48.748;2.222;2023-11-21T07:10:18;13.55;;;6.07;;
29344;SDS011;16339;48.748;2.222;2023-11-21T07:12:46;23.50;;;7.05;;
29344;SDS011;16339;48.748;2.222;2023-11-21T07:15:21;11.93;;;6.93;;
29344;SDS011;16339;48.748;2.222;2023-11-21T07:17:51;13.35;;;6.53;;
29344;SDS011;16339;48.748;2.222;2023-11-21T07:20:19;12.70;;;7.00;;
29344;SDS011;16339;48.748;2.222;2023-11-21T07:22:48;10.32;;;6.28;;
29344;SDS011;16339;48.748;2.222;2023-11-21T07:25:17;19.33;;;7.47;;
29344;SDS011;16339;48.748;2.222;2023-11-21T07:27:47;12.40;;;6.95;;
29344;SDS011;16339;48.748;2.222;2023-11-21T07:30:16;11.02;;;6.70;;
29344;SDS011;16339;48.748;2.222;2023-11-21T07:32:47;14.05;;;7.15;;
29344;SDS011;16339;48.748;2.222;2023-11-21T07:35:16;10.73;;;7.50;;
29344;SDS011;16339;48.748;2.222;2023-11-21T07:37:45;15.52;;;7.68;;
29344;SDS011;16339;48.748;2.222;2023-11-21T07:40:14;10.48;;;7.00;;
29344;SDS011;16339;48.748;2.222;2023-11-21T07:42:43;12.00;;;6.88;;
29344;SDS011;16339;48.748;2.222;2023-11-21T07:45:11;9.95;;;6.43;;
29344;SDS011;16339;48.748;2.222;2023-11-21T07:47:55;13.93;;;7.88;;
29344;SDS011;16339;48.748;2.222;2023-11-21T07:51:22;14.82;;;7.90;;
29344;SDS011;16339;48.748;2.222;2023-11-21T07:53:35;14.82;;;8.38;;
29344;SDS011;16339;48.748;2.222;2023-11-21T07:56:05;15.43;;;8.48;;
29344;SDS011;16339;48.748;2.222;2023-11-21T07:58:35;14.10;;;9.25;;
29344;SDS011;16339;48.748;2.222;2023-11-21T08:01:07;15.98;;;9.18;;
29344;SDS011;16339;48.748;2.222;2023-11-21T08:03:52;17.58;;;9.40;;
29344;SDS011;16339;48.748;2.222;2023-11-21T08:06:31;15.70;;;10.15;;
29344;SDS011;16339;48.748;2.222;2023-11-21T08:12:21;20.10;;;10.18;;
29344;SDS011;16339;48.748;2.222;2023-11-21T08:14:54;19.23;;;10.73;;
29344;SDS011;16339;48.748;2.222;2023-11-21T08:17:24;23.98;;;11.95;;
29344;SDS011;16339;48.748;2.222;2023-11-21T08:31:28;24.85;;;13.60;;
29344;SDS011;16339;48.748;2.222;2023-11-21T08:33:59;22.08;;;12.98;;
29344;SDS011;16339;48.748;2.222;2023-11-21T08:36:31;24.02;;;14.02;;
29344;SDS011;16339;48.748;2.222;2023-11-21T08:39:43;21.90;;;12.52;;
29344;SDS011;16339;48.748;2.222;2023-11-21T08:48:40;18.48;;;10.40;;
29344;SDS011;16339;48.748;2.222;2023-11-21T08:51:12;19.52;;;11.15;;
29344;SDS011;16339;48.748;2.222;2023-11-21T08:53:41;21.42;;;11.10;;
29344;SDS011;16339;48.748;2.222;2023-11-21T08:56:19;19.75;;;10.77;;
29344;SDS011;16339;48.748;2.222;2023-11-21T08:58:54;20.38;;;10.38;;
29344;SDS011;16339;48.748;2.222;2023-11-21T09:01:27;17.02;;;9.93;;
29344;SDS011;16339;48.748;2.222;2023-11-21T09:04:09;18.85;;;10.88;;
29344;SDS011;16339;48.748;2.222;2023-11-21T09:09:30;13.30;;;8.07;;
29344;SDS011;16339;48.748;2.222;2023-11-21T09:11:59;13.50;;;7.95;;
29344;SDS011;16339;48.748;2.222;2023-11-21T09:18:00;12.07;;;7.90;;
29344;SDS011;16339;48.748;2.222;2023-11-21T09:20:46;13.85;;;8.00;;
29344;SDS011;16339;48.748;2.222;2023-11-21T09:23:18;12.73;;;7.95;;
29344;SDS011;16339;48.748;2.222;2023-11-21T09:25:47;11.13;;;7.20;;
29344;SDS011;16339;48.748;2.222;2023-11-21T09:28:22;12.93;;;7.97;;
29344;SDS011;16339;48.748;2.222;2023-11-21T09:31:04;16.50;;;8.18;;
29344;SDS011;16339;48.748;2.222;2023-11-21T09:33:34;11.20;;;6.93;;
29344;SDS011;16339;48.748;2.222;2023-11-21T09:36:10;11.90;;;7.30;;
29344;SDS011;16339;48.748;2.222;2023-11-21T09:38:40;12.13;;;6.32;;
29344;SDS011;16339;48.748;2.222;2023-11-21T09:41:11;10.60;;;6.50;;
29344;SDS011;16339;48.748;2.222;2023-11-21T09:43:49;12.55;;;6.03;;
29344;SDS011;16339;48.748;2.222;2023-11-21T09:46:24;11.38;;;5.88;;
29344;SDS011;16339;48.748;2.222;2023-11-21T09:48:59;7.53;;;4.50;;
29344;SDS011;16339;48.748;2.222;2023-11-21T09:51:32;8.70;;;5.55;;
29344;SDS011;16339;48.748;2.222;2023-11-21T09:54:12;11.35;;;5.28;;
29344;SDS011;16339;48.748;2.222;2023-11-21T09:57:08;14.68;;;4.75;;
29344;SDS011;16339;48.748;2.222;2023-11-21T09:59:36;13.67;;;4.97;;
29344;SDS011;16339;48.748;2.222;2023-11-21T10:05:03;7.07;;;4.75;;
29344;SDS011;16339;48.748;2.222;2023-11-21T10:10:10;8.18;;;4.70;;
29344;SDS011;16339;48.748;2.222;2023-11-21T10:12:39;8.52;;;4.70;;
29344;SDS011;16339;48.748;2.222;2023-11-21T10:15:11;7.07;;;4.45;;
29344;SDS011;16339;48.748;2.222;2023-11-21T10:17:42;7.47;;;4.22;;
29344;SDS011;16339;48.748;2.222;2023-11-21T10:22:56;9.90;;;4.22;;
29344;SDS011;16339;48.748;2.222;2023-11-21T10:46:09;5.38;;;3.15;;
29344;SDS011;16339;48.748;2.222;2023-11-21T10:51:09;4.25;;;2.80;;
29344;SDS011;16339;48.748;2.222;2023-11-21T10:53:38;7.00;;;3.28;;
29344;SDS011;16339;48.748;2.222;2023-11-21T10:56:08;7.57;;;3.17;;
29344;SDS011;16339;48.748;2.222;2023-11-21T10:58:42;3.50;;;2.67;;
29344;SDS011;16339;48.748;2.222;2023-11-21T11:01:15;7.55;;;2.90;;
29344;SDS011;16339;48.748;2.222;2023-11-21T11:03:46;8.20;;;3.08;;
29344;SDS011;16339;48.748;2.222;2023-11-21T11:06:19;8.10;;;2.80;;
29344;SDS011;16339;48.748;2.222;2023-11-21T11:08:51;5.18;;;3.05;;
29344;SDS011;16339;48.748;2.222;2023-11-21T11:11:52;10.43;;;3.15;;
29344;SDS011;16339;48.748;2.222;2023-11-21T11:17:43;3.30;;;2.30;;
29344;SDS011;16339;48.748;2.222;2023-11-21T11:20:25;7.57;;;2.55;;
29344;SDS011;16339;48.748;2.222;2023-11-21T11:23:07;2.55;;;1.83;;
29344;SDS011;16339;48.748;2.222;2023-11-21T11:26:16;2.33;;;1.67;;
29344;SDS011;16339;48.748;2.222;2023-11-21T11:51:21;4.43;;;1.77;;
29344;SDS011;16339;48.748;2.222;2023-11-21T11:53:50;4.40;;;1.63;;
29344;SDS011;16339;48.748;2.222;2023-11-21T11:56:30;4.05;;;1.67;;
29344;SDS011;16339;48.748;2.222;2023-11-21T11:59:01;3.35;;;1.52;;
29344;SDS011;16339;48.748;2.222;2023-11-21T12:01:37;1.98;;;1.45;;
29344;SDS011;16339;48.748;2.222;2023-11-21T12:20:05;3.15;;;1.85;;
29344;SDS011;16339;48.748;2.222;2023-11-21T12:22:41;4.90;;;2.00;;
29344;SDS011;16339;48.748;2.222;2023-11-21T12:25:12;3.13;;;1.95;;
29344;SDS011;16339;48.748;2.222;2023-11-21T12:27:43;4.18;;;1.90;;
29344;SDS011;16339;48.748;2.222;2023-11-21T12:30:15;2.45;;;1.90;;
29344;SDS011;16339;48.748;2.222;2023-11-21T12:32:47;4.85;;;1.90;;
29344;SDS011;16339;48.748;2.222;2023-11-21T12:38:41;3.38;;;2.10;;
29344;SDS011;16339;48.748;2.222;2023-11-21T12:41:10;3.63;;;2.25;;
29344;SDS011;16339;48.748;2.222;2023-11-21T13:02:28;6.70;;;2.10;;
29344;SDS011;16339;48.748;2.222;2023-11-21T13:05:00;6.35;;;2.45;;
29344;SDS011;16339;48.748;2.222;2023-11-21T13:40:17;4.30;;;2.42;;
29344;SDS011;16339;48.748;2.222;2023-11-21T13:43:00;2.53;;;1.90;;
29344;SDS011;16339;48.748;2.222;2023-11-21T13:45:30;4.13;;;2.42;;
29344;SDS011;16339;48.748;2.222;2023-11-21T13:48:00;4.68;;;1.90;;
29344;SDS011;16339;48.748;2.222;2023-11-21T13:53:01;8.38;;;2.33;;
29344;SDS011;16339;48.748;2.222;2023-11-21T13:55:38;20.85;;;2.30;;
29344;SDS011;16339;48.748;2.222;2023-11-21T14:01:18;4.38;;;1.92;;
29344;SDS011;16339;48.748;2.222;2023-11-21T14:04:10;3.50;;;1.83;;
29344;SDS011;16339;48.748;2.222;2023-11-21T14:06:53;3.13;;;1.80;;
29344;SDS011;16339;48.748;2.222;2023-11-21T14:09:45;3.47;;;1.60;;
29344;SDS011;16339;48.748;2.222;2023-11-21T14:12:28;2.95;;;1.90;;
29344;SDS011;16339;48.748;2.222;2023-11-21T14:15:03;3.08;;;1.88;;
29344;SDS011;16339;48.748;2.222;2023-11-21T14:20:42;5.03;;;1.98;;
29344;SDS011;16339;48.748;2.222;2023-11-21T14:26:40;3.55;;;1.80;;
29344;SDS011;16339;48.748;2.222;2023-11-21T14:32:27;3.42;;;1.70;;
29344;SDS011;16339;48.748;2.222;2023-11-21T14:35:07;3.75;;;1.80;;
29344;SDS011;16339;48.748;2.222;2023-11-21T14:37:39;3.25;;;1.60;;
29344;SDS011;16339;48.748;2.222;2023-11-21T14:40:23;2.30;;;1.55;;
29344;SDS011;16339;48.748;2.222;2023-11-21T14:43:07;4.03;;;1.70;;
29344;SDS011;16339;48.748;2.222;2023-11-21T14:45:38;2.20;;;1.75;;
29344;SDS011;16339;48.748;2.222;2023-11-21T14:50:51;3.90;;;1.48;;
29344;SDS011;16339;48.748;2.222;2023-11-21T14:53:35;2.83;;;2.10;;
29344;SDS011;16339;48.748;2.222;2023-11-21T14:59:58;3.63;;;2.03;;
29344;SDS011;16339;48.748;2.222;2023-11-21T15:12:12;1.90;;;1.70;;
29344;SDS011;16339;48.748;2.222;2023-11-21T15:18:27;5.70;;;1.80;;
29344;SDS011;16339;48.748;2.222;2023-11-21T15:20:59;4.18;;;1.52;;
29344;SDS011;16339;48.748;2.222;2023-11-21T15:23:28;4.65;;;1.60;;
29344;SDS011;16339;48.748;2.222;2023-11-21T15:28:58;3.97;;;1.75;;
29344;SDS011;16339;48.748;2.222;2023-11-21T15:31:38;3.58;;;1.90;;
29344;SDS011;16339;48.748;2.222;2023-11-21T15:34:11;8.02;;;1.83;;
29344;SDS011;16339;48.748;2.222;2023-11-21T15:36:42;2.85;;;1.90;;
29344;SDS011;16339;48.748;2.222;2023-11-21T15:39:13;4.60;;;2.15;;
29344;SDS011;16339;48.748;2.222;2023-11-21T15:41:45;9.13;;;1.83;;
29344;SDS011;16339;48.748;2.222;2023-11-21T15:44:18;10.38;;;1.77;;
29344;SDS011;16339;48.748;2.222;2023-11-21T15:46:51;7.63;;;1.98;;
29344;SDS011;16339;48.748;2.222;2023-11-21T15:49:21;3.53;;;1.70;;
29344;SDS011;16339;48.748;2.222;2023-11-21T15:51:55;8.23;;;1.90;;
29344;SDS011;16339;48.748;2.222;2023-11-21T15:54:54;4.65;;;1.75;;
29344;SDS011;16339;48.748;2.222;2023-11-21T15:57:22;2.92;;;1.75;;
29344;SDS011;16339;48.748;2.222;2023-11-21T15:59:51;2.45;;;1.60;;
29344;SDS011;16339;48.748;2.222;2023-11-21T16:02:20;3.85;;;1.52;;
29344;SDS011;16339;48.748;2.222;2023-11-21T16:44:38;5.63;;;3.15;;
29344;SDS011;16339;48.748;2.222;2023-11-21T16:47:16;3.08;;;2.40;;
29344;SDS011;16339;48.748;2.222;2023-11-21T16:49:59;3.60;;;2.08;;
29344;SDS011;16339;48.748;2.222;2023-11-21T16:55:39;3.00;;;2.00;;
29344;SDS011;16339;48.748;2.222;2023-11-21T16:58:08;6.60;;;1.98;;
29344;SDS011;16339;48.748;2.222;2023-11-21T17:00:39;3.60;;;2.20;;
29344;SDS011;16339;48.748;2.222;2023-11-21T17:03:08;3.75;;;2.33;;
29344;SDS011;16339;48.748;2.222;2023-11-21T17:05:37;3.67;;;2.47;;
29344;SDS011;16339;48.748;2.222;2023-11-21T17:08:08;4.63;;;2.78;;
29344;SDS011;16339;48.748;2.222;2023-11-21T17:13:08;5.82;;;3.40;;
29344;SDS011;16339;48.748;2.222;2023-11-21T17:15:39;8.10;;;3.30;;
29344;SDS011;16339;48.748;2.222;2023-11-21T17:18:13;8.15;;;3.85;;
29344;SDS011;16339;48.748;2.222;2023-11-21T17:20:43;12.52;;;4.18;;
29344;SDS011;16339;48.748;2.222;2023-11-21T17:23:11;5.28;;;3.45;;
29344;SDS011;16339;48.748;2.222;2023-11-21T17:25:43;9.80;;;4.43;;
29344;SDS011;16339;48.748;2.222;2023-11-21T17:28:12;12.07;;;6.20;;
29344;SDS011;16339;48.748;2.222;2023-11-21T17:30:44;7.80;;;4.50;;
29344;SDS011;16339;48.748;2.222;2023-11-21T17:33:13;5.80;;;3.83;;
29344;SDS011;16339;48.748;2.222;2023-11-21T17:35:43;6.05;;;4.32;;
29344;SDS011;16339;48.748;2.222;2023-11-21T17:38:14;9.18;;;4.40;;
29344;SDS011;16339;48.748;2.222;2023-11-21T17:40:42;6.57;;;4.45;;
29344;SDS011;16339;48.748;2.222;2023-11-21T17:43:12;6.35;;;4.25;;
29344;SDS011;16339;48.748;2.222;2023-11-21T17:45:45;12.90;;;5.55;;
29344;SDS011;16339;48.748;2.222;2023-11-21T17:55:07;26.60;;;6.05;;
29344;SDS011;16339;48.748;2.222;2023-11-21T17:57:46;11.55;;;4.90;;
29344;SDS011;16339;48.748;2.222;2023-11-21T18:00:27;8.45;;;4.43;;
29344;SDS011;16339;48.748;2.222;2023-11-21T18:05:34;15.68;;;5.22;;
29344;SDS011;16339;48.748;2.222;2023-11-21T18:08:05;12.02;;;5.15;;
29344;SDS011;16339;48.748;2.222;2023-11-21T18:10:38;11.98;;;5.15;;
29344;SDS011;16339;48.748;2.222;2023-11-21T18:15:41;6.63;;;4.40;;
29344;SDS011;16339;48.748;2.222;2023-11-21T18:18:18;10.95;;;5.10;;
29344;SDS011;16339;48.748;2.222;2023-11-21T18:21:21;10.30;;;5.30;;
29344;SDS011;16339;48.748;2.222;2023-11-21T18:24:12;13.98;;;6.55;;
29344;SDS011;16339;48.748;2.222;2023-11-21T18:27:20;13.00;;;5.75;;
29344;SDS011;16339;48.748;2.222;2023-11-21T18:29:47;10.93;;;5.13;;
29344;SDS011;16339;48.748;2.222;2023-11-21T18:32:20;17.23;;;5.25;;
29344;SDS011;16339;48.748;2.222;2023-11-21T18:34:55;16.05;;;5.13;;
29344;SDS011;16339;48.748;2.222;2023-11-21T18:37:30;12.90;;;4.38;;
29344;SDS011;16339;48.748;2.222;2023-11-21T18:45:58;13.05;;;4.20;;
29344;SDS011;16339;48.748;2.222;2023-11-21T18:48:34;13.43;;;4.05;;
29344;SDS011;16339;48.748;2.222;2023-11-21T18:51:04;20.63;;;4.85;;
29344;SDS011;16339;48.748;2.222;2023-11-21T18:54:04;8.45;;;4.10;;
29344;SDS011;16339;48.748;2.222;2023-11-21T19:00:01;11.80;;;5.20;;
29344;SDS011;16339;48.748;2.222;2023-11-21T19:02:58;14.73;;;4.30;;
29344;SDS011;16339;48.748;2.222;2023-11-21T19:05:40;10.25;;;4.53;;
29344;SDS011;16339;48.748;2.222;2023-11-21T19:08:28;8.10;;;4.15;;
29344;SDS011;16339;48.748;2.222;2023-11-21T19:10:58;8.70;;;4.28;;
29344;SDS011;16339;48.748;2.222;2023-11-21T19:16:24;13.23;;;5.35;;
29344;SDS011;16339;48.748;2.222;2023-11-21T19:18:59;10.02;;;5.43;;
29344;SDS011;16339;48.748;2.222;2023-11-21T19:21:33;10.52;;;4.90;;
29344;SDS011;16339;48.748;2.222;2023-11-21T19:24:06;12.82;;;6.18;;
29344;SDS011;16339;48.748;2.222;2023-11-21T19:26:38;13.02;;;5.80;;
29344;SDS011;16339;48.748;2.222;2023-11-21T19:29:14;14.50;;;5.88;;
29344;SDS011;16339;48.748;2.222;2023-11-21T19:31:43;23.92;;;7.47;;
29344;SDS011;16339;48.748;2.222;2023-11-21T19:34:16;20.05;;;6.85;;
29344;SDS011;16339;48.748;2.222;2023-11-21T19:36:50;16.08;;;6.20;;
29344;SDS011;16339;48.748;2.222;2023-11-21T19:39:23;9.95;;;6.10;;